Time,TemperatureF,DewpointF,PressureIn,WindDirection,WindDirectionDegrees,WindSpeedMPH,WindSpeedGustMPH,Humidity,HourlyPrecipIn,Conditions,Clouds,dailyrainin,SolarRadiationWatts/m^2,SoftwareType,DateUTC
2014-07-24 00:01:00,62.0,47.0,-100.00,North,-999,0.0,2.0,57,0.00,,,0.00,0.000000,,2014-07-24 07:01:00,
2014-07-24 00:22:00,62.0,47.0,-100.00,North,-999,0.0,2.0,57,0.00,,,0.00,0.000000,,2014-07-24 07:22:00,
2014-07-24 00:32:00,62.0,47.0,-100.00,North,-999,0.0,2.0,57,0.00,,,0.00,0.000000,,2014-07-24 07:32:00,
2014-07-24 01:02:00,62.0,47.0,-100.00,North,-999,0.0,2.0,57,0.00,,,0.00,0.000000,,2014-07-24 08:02:00,
2014-07-24 01:12:00,62.0,47.0,-100.00,North,-999,0.0,2.0,57,0.00,,,0.00,0.000000,,2014-07-24 08:12:00,
2014-07-24 01:32:00,62.0,47.0,-100.00,North,-999,0.0,2.0,57,0.00,,,0.00,0.000000,,2014-07-24 08:32:00,
2014-07-24 01:33:00,60.0,41.0,-100.00,North,-999,0.0,2.0,50,0.00,,,0.00,0.000000,,2014-07-24 08:33:00,
2014-07-24 02:02:00,60.0,41.0,-100.00,North,-999,0.0,2.0,50,0.00,,,0.00,0.000000,,2014-07-24 09:02:00,
2014-07-24 02:12:00,60.0,41.0,-100.00,North,-999,0.0,2.0,50,0.00,,,0.00,0.000000,,2014-07-24 09:12:00,
2014-07-24 02:33:00,61.0,40.0,-100.00,NNW,347,1.0,4.0,46,0.00,,,0.00,0.000000,,2014-07-24 09:33:00,
2014-07-24 02:53:00,61.0,40.0,-100.00,NNW,347,1.0,4.0,46,0.00,,,0.00,0.000000,,2014-07-24 09:53:00,
2014-07-24 03:03:00,61.0,40.0,-100.00,NNW,347,1.0,4.0,46,0.00,,,0.00,0.000000,,2014-07-24 10:03:00,
2014-07-24 03:13:00,61.0,40.0,-100.00,NNW,347,1.0,4.0,46,0.00,,,0.00,0.000000,,2014-07-24 10:13:00,
2014-07-24 03:33:00,61.0,38.0,-100.00,North,-999,0.0,4.0,42,0.00,,,0.00,0.000000,,2014-07-24 10:33:00,
2014-07-24 03:53:00,61.0,38.0,-100.00,North,-999,0.0,4.0,42,0.00,,,0.00,0.000000,,2014-07-24 10:53:00,
2014-07-24 04:53:00,61.0,37.0,-100.00,North,-999,0.0,4.0,41,0.00,,,0.00,0.000000,,2014-07-24 11:53:00,
2014-07-24 05:22:00,61.0,37.0,-100.00,North,-999,0.0,4.0,41,0.00,,,0.00,0.000000,,2014-07-24 12:22:00,
2014-07-24 05:32:00,61.0,37.0,-100.00,North,-999,0.0,4.0,41,0.00,,,0.00,0.000000,,2014-07-24 12:32:00,
2014-07-24 05:52:00,62.0,33.0,-100.00,NW,323,1.0,3.0,34,0.00,,,0.00,0.000000,,2014-07-24 12:52:00,
2014-07-24 06:01:00,62.0,33.0,-100.00,NW,323,1.0,3.0,34,0.00,,,0.00,0.000000,,2014-07-24 13:01:00,
2014-07-24 06:11:00,62.0,33.0,-100.00,NW,323,1.0,3.0,34,0.00,,,0.00,0.000000,,2014-07-24 13:11:00,
2014-07-24 06:22:00,62.0,33.0,-100.00,NW,323,1.0,3.0,34,0.00,,,0.00,0.000000,,2014-07-24 13:22:00,
2014-07-24 06:33:00,63.0,33.0,-100.00,WNW,291,1.0,2.0,33,0.00,,,0.00,8.000000,,2014-07-24 13:33:00,
2014-07-24 07:02:00,63.0,33.0,-100.00,WNW,291,1.0,2.0,33,0.00,,,0.00,8.000000,,2014-07-24 14:02:00,
2014-07-24 07:33:00,66.0,34.0,-100.00,SE,141,1.0,3.0,31,0.00,,,0.00,41.000000,,2014-07-24 14:33:00,
2014-07-24 07:52:00,66.0,34.0,-100.00,SE,141,1.0,3.0,31,0.00,,,0.00,41.000000,,2014-07-24 14:52:00,
2014-07-24 08:33:00,74.0,40.0,-100.00,ESE,107,2.0,4.0,29,0.00,,,0.00,302.000000,,2014-07-24 15:33:00,
2014-07-24 09:04:00,74.0,40.0,-100.00,ESE,107,2.0,4.0,29,0.00,,,0.00,302.000000,,2014-07-24 16:04:00,
2014-07-24 09:13:00,74.0,40.0,-100.00,ESE,107,2.0,4.0,29,0.00,,,0.00,302.000000,,2014-07-24 16:13:00,
2014-07-24 09:33:00,75.0,40.0,-100.00,NNW,343,2.0,4.0,28,0.00,,,0.00,548.000000,,2014-07-24 16:33:00,
2014-07-24 10:03:00,75.0,40.0,-100.00,NNW,343,2.0,4.0,28,0.00,,,0.00,548.000000,,2014-07-24 17:03:00,
2014-07-24 10:13:00,75.0,40.0,-100.00,NNW,343,2.0,4.0,28,0.00,,,0.00,548.000000,,2014-07-24 17:13:00,
2014-07-24 10:23:00,75.0,40.0,-100.00,NNW,343,2.0,4.0,28,0.00,,,0.00,548.000000,,2014-07-24 17:23:00,
2014-07-24 10:54:00,78.0,42.0,-100.00,NNW,346,2.0,4.0,28,0.00,,,0.00,733.000000,,2014-07-24 17:54:00,
2014-07-24 11:02:00,78.0,42.0,-100.00,NNW,346,2.0,4.0,28,0.00,,,0.00,733.000000,,2014-07-24 18:02:00,
2014-07-24 11:13:00,78.0,42.0,-100.00,NNW,346,2.0,4.0,28,0.00,,,0.00,733.000000,,2014-07-24 18:13:00,
2014-07-24 11:22:00,78.0,42.0,-100.00,NNW,346,2.0,4.0,28,0.00,,,0.00,733.000000,,2014-07-24 18:22:00,
2014-07-24 11:32:00,78.0,42.0,-100.00,NNW,346,2.0,4.0,28,0.00,,,0.00,733.000000,,2014-07-24 18:32:00,
2014-07-24 11:52:00,81.0,41.0,-100.00,SSW,205,1.0,5.0,24,0.00,,,0.00,860.000000,,2014-07-24 18:52:00,
2014-07-24 12:11:00,81.0,41.0,-100.00,SSW,205,1.0,5.0,24,0.00,,,0.00,860.000000,,2014-07-24 19:11:00,
2014-07-24 12:22:00,81.0,41.0,-100.00,SSW,205,1.0,5.0,24,0.00,,,0.00,860.000000,,2014-07-24 19:22:00,
2014-07-24 12:52:00,82.0,38.0,-100.00,SSW,201,3.0,10.0,21,0.00,,,0.00,945.000000,,2014-07-24 19:52:00,
2014-07-24 13:22:00,82.0,38.0,-100.00,SSW,201,3.0,10.0,21,0.00,,,0.00,945.000000,,2014-07-24 20:22:00,
2014-07-24 13:32:00,82.0,38.0,-100.00,SSW,201,3.0,10.0,21,0.00,,,0.00,945.000000,,2014-07-24 20:32:00,
2014-07-24 13:33:00,83.0,38.0,-100.00,South,188,3.0,11.0,20,0.00,,,0.00,979.000000,,2014-07-24 20:33:00,
2014-07-24 14:11:00,83.0,38.0,-100.00,South,188,3.0,11.0,20,0.00,,,0.00,979.000000,,2014-07-24 21:11:00,
2014-07-24 14:33:00,86.0,39.0,-100.00,North,1,2.0,11.0,19,0.00,,,0.00,954.000000,,2014-07-24 21:33:00,
2014-07-24 14:53:00,86.0,39.0,-100.00,North,1,2.0,11.0,19,0.00,,,0.00,954.000000,,2014-07-24 21:53:00,
2014-07-24 15:03:00,86.0,39.0,-100.00,North,1,2.0,11.0,19,0.00,,,0.00,954.000000,,2014-07-24 22:03:00,
2014-07-24 15:13:00,86.0,39.0,-100.00,North,1,2.0,11.0,19,0.00,,,0.00,954.000000,,2014-07-24 22:13:00,
2014-07-24 15:22:00,86.0,39.0,-100.00,North,1,2.0,11.0,19,0.00,,,0.00,954.000000,,2014-07-24 22:22:00,
2014-07-24 15:53:00,85.0,44.0,-100.00,WSW,251,2.0,9.0,24,0.00,,,0.00,882.000000,,2014-07-24 22:53:00,
2014-07-24 16:02:00,85.0,44.0,-100.00,WSW,251,2.0,9.0,24,0.00,,,0.00,882.000000,,2014-07-24 23:02:00,
2014-07-24 16:12:00,85.0,44.0,-100.00,WSW,251,2.0,9.0,24,0.00,,,0.00,882.000000,,2014-07-24 23:12:00,
2014-07-24 16:53:00,86.0,44.0,-100.00,SW,217,2.0,7.0,23,0.00,,,0.00,756.000000,,2014-07-24 23:53:00,
2014-07-24 17:02:00,86.0,44.0,-100.00,SW,217,2.0,7.0,23,0.00,,,0.00,756.000000,,2014-07-25 00:02:00,
2014-07-24 17:12:00,86.0,44.0,-100.00,SW,217,2.0,7.0,23,0.00,,,0.00,756.000000,,2014-07-25 00:12:00,
2014-07-24 17:22:00,86.0,44.0,-100.00,SW,217,2.0,7.0,23,0.00,,,0.00,756.000000,,2014-07-25 00:22:00,
2014-07-24 18:11:00,81.0,44.0,-100.00,South,180,1.0,9.0,27,0.00,,,0.00,540.000000,,2014-07-25 01:11:00,
2014-07-24 18:32:00,81.0,44.0,-100.00,South,180,1.0,9.0,27,0.00,,,0.00,540.000000,,2014-07-25 01:32:00,
2014-07-24 19:02:00,76.0,44.0,-100.00,SSW,211,1.0,5.0,32,0.00,,,0.00,93.000000,,2014-07-25 02:02:00,
2014-07-24 19:11:00,76.0,44.0,-100.00,SSW,211,1.0,5.0,32,0.00,,,0.00,93.000000,,2014-07-25 02:11:00,
2014-07-24 19:22:00,76.0,44.0,-100.00,SSW,211,1.0,5.0,32,0.00,,,0.00,93.000000,,2014-07-25 02:22:00,
2014-07-24 19:33:00,73.0,44.0,-100.00,North,-999,0.0,5.0,36,0.00,,,0.00,21.000000,,2014-07-25 02:33:00,
2014-07-24 20:02:00,73.0,44.0,-100.00,North,-999,0.0,5.0,36,0.00,,,0.00,21.000000,,2014-07-25 03:02:00,
2014-07-24 20:12:00,73.0,44.0,-100.00,North,-999,0.0,5.0,36,0.00,,,0.00,21.000000,,2014-07-25 03:12:00,
2014-07-24 20:23:00,73.0,44.0,-100.00,North,-999,0.0,5.0,36,0.00,,,0.00,21.000000,,2014-07-25 03:23:00,
2014-07-24 20:54:00,70.0,43.0,-100.00,SW,228,1.0,2.0,38,0.00,,,0.00,9.000000,,2014-07-25 03:54:00,